KAJG

Details ICAO KAJG
Name MT CARMEL MUNI
Region United States
Timezone America/Chicago (UTC-6.0)
Plans Departing 0
Arriving 0
Stats Elevation 429 ft / 131 m (AMSL)
Location 38.606525° -87.726627°
Runways 2
Magnetic Variation 3.389° W
Sunrise 2017-12-13 13:01:40 UTC / 2017-12-13 07:01:40 Local
Sunset 2017-12-13 22:31:36 UTC / 2017-12-13 16:31:36 Local
Advertisement - Login to hide

Runways

ID Width Length Bearing (true) Bearing (mag) Surface Threshold Offset Overrun Length
04 100 ft / 30 m 4,000 ft / 1,219 m 40.62° 44.01° Asphalt 0 ft / 0 m 0 ft / 0 m
13 75 ft / 23 m 4,497 ft / 1,371 m 130.87° 134.26° Asphalt 0 ft / 0 m 0 ft / 0 m
22 100 ft / 30 m 4,000 ft / 1,219 m 220.63° 224.02° Asphalt 0 ft / 0 m 0 ft / 0 m
31 75 ft / 23 m 4,497 ft / 1,371 m 310.88° 314.27° Asphalt 0 ft / 0 m 0 ft / 0 m

Map

Weather


0- 5 10 15 20 25 30 35+ Temperature / ° C

Clouds and Precipitation
Forecast for 2017-12-14 00:00 UTC. Updated 2 hours ago

Ground ~20,000 ft ~40,000 ft Winds

METAR

KAJG 140055Z AUTO 30017G21KT 10SM SCT050 08/01 A2963 RMK AO2 T00770005

TAF

Not found

Frequencies

Recorded 134.90 MHz AWOS 3
Approach 125.60 MHz EVANSVILLE APP/DEP
Unicom 122.70 MHz CTAF/UNICOM
Warning: Do not use this data for real-world aviation or navigation. No guarantee of current accuracy is given.